sensor_id;sensor_type;location;lat;lon;timestamp;P1;durP1;ratioP1;P2;durP2;ratioP2
45366;SDS011;31100;55.848;37.636;2022-12-29T00:01:58;6.28;;;3.10;;
45366;SDS011;31100;55.848;37.636;2022-12-29T00:04:24;5.60;;;2.50;;
45366;SDS011;31100;55.848;37.636;2022-12-29T00:06:49;6.43;;;2.67;;
45366;SDS011;31100;55.848;37.636;2022-12-29T00:09:15;5.43;;;2.50;;
45366;SDS011;31100;55.848;37.636;2022-12-29T00:11:41;5.65;;;2.17;;
45366;SDS011;31100;55.848;37.636;2022-12-29T00:14:10;6.07;;;2.55;;
45366;SDS011;31100;55.848;37.636;2022-12-29T00:16:55;5.90;;;2.83;;
45366;SDS011;31100;55.848;37.636;2022-12-29T00:19:20;5.25;;;2.65;;
45366;SDS011;31100;55.848;37.636;2022-12-29T00:22:05;5.30;;;2.85;;
45366;SDS011;31100;55.848;37.636;2022-12-29T00:24:49;10.20;;;3.08;;
45366;SDS011;31100;55.848;37.636;2022-12-29T00:27:30;5.47;;;2.28;;
45366;SDS011;31100;55.848;37.636;2022-12-29T00:30:16;4.82;;;1.73;;
45366;SDS011;31100;55.848;37.636;2022-12-29T00:33:15;4.80;;;1.67;;
45366;SDS011;31100;55.848;37.636;2022-12-29T00:36:05;3.70;;;1.40;;
45366;SDS011;31100;55.848;37.636;2022-12-29T00:38:32;5.75;;;2.08;;
45366;SDS011;31100;55.848;37.636;2022-12-29T00:41:19;7.63;;;2.60;;
45366;SDS011;31100;55.848;37.636;2022-12-29T00:44:03;6.28;;;2.35;;
45366;SDS011;31100;55.848;37.636;2022-12-29T00:46:35;3.70;;;1.55;;
45366;SDS011;31100;55.848;37.636;2022-12-29T00:49:02;4.43;;;2.15;;
45366;SDS011;31100;55.848;37.636;2022-12-29T00:51:46;5.00;;;1.80;;
45366;SDS011;31100;55.848;37.636;2022-12-29T00:54:12;3.75;;;1.40;;
45366;SDS011;31100;55.848;37.636;2022-12-29T00:56:38;3.55;;;1.38;;
45366;SDS011;31100;55.848;37.636;2022-12-29T00:59:05;4.20;;;1.20;;
45366;SDS011;31100;55.848;37.636;2022-12-29T01:01:32;4.45;;;1.10;;
45366;SDS011;31100;55.848;37.636;2022-12-29T01:03:58;3.65;;;1.40;;
45366;SDS011;31100;55.848;37.636;2022-12-29T01:06:23;5.03;;;1.17;;
45366;SDS011;31100;55.848;37.636;2022-12-29T01:08:50;5.03;;;1.23;;
45366;SDS011;31100;55.848;37.636;2022-12-29T01:11:36;1.92;;;0.90;;
45366;SDS011;31100;55.848;37.636;2022-12-29T01:14:02;7.38;;;1.63;;
45366;SDS011;31100;55.848;37.636;2022-12-29T01:16:28;2.95;;;0.90;;
45366;SDS011;31100;55.848;37.636;2022-12-29T01:18:54;5.80;;;1.38;;
45366;SDS011;31100;55.848;37.636;2022-12-29T01:21:19;3.33;;;1.27;;
45366;SDS011;31100;55.848;37.636;2022-12-29T01:23:45;4.97;;;1.25;;
45366;SDS011;31100;55.848;37.636;2022-12-29T01:26:11;4.00;;;1.25;;
45366;SDS011;31100;55.848;37.636;2022-12-29T01:28:37;5.20;;;1.77;;
45366;SDS011;31100;55.848;37.636;2022-12-29T01:31:05;6.05;;;2.00;;
45366;SDS011;31100;55.848;37.636;2022-12-29T01:33:31;5.95;;;1.65;;
45366;SDS011;31100;55.848;37.636;2022-12-29T01:36:04;3.97;;;1.20;;
45366;SDS011;31100;55.848;37.636;2022-12-29T01:40:56;4.68;;;1.48;;
45366;SDS011;31100;55.848;37.636;2022-12-29T01:43:37;2.88;;;1.30;;
45366;SDS011;31100;55.848;37.636;2022-12-29T01:46:03;5.65;;;2.20;;
45366;SDS011;31100;55.848;37.636;2022-12-29T01:48:29;5.72;;;2.03;;
45366;SDS011;31100;55.848;37.636;2022-12-29T01:50:54;5.03;;;1.33;;
45366;SDS011;31100;55.848;37.636;2022-12-29T01:53:21;5.22;;;1.30;;
45366;SDS011;31100;55.848;37.636;2022-12-29T01:55:53;7.53;;;2.05;;
45366;SDS011;31100;55.848;37.636;2022-12-29T01:58:21;4.72;;;1.10;;
45366;SDS011;31100;55.848;37.636;2022-12-29T02:00:48;9.57;;;2.22;;
45366;SDS011;31100;55.848;37.636;2022-12-29T02:03:13;4.55;;;1.23;;
45366;SDS011;31100;55.848;37.636;2022-12-29T02:05:42;3.80;;;1.40;;
45366;SDS011;31100;55.848;37.636;2022-12-29T02:08:35;4.32;;;1.13;;
45366;SDS011;31100;55.848;37.636;2022-12-29T02:11:02;4.38;;;1.35;;
45366;SDS011;31100;55.848;37.636;2022-12-29T02:13:28;8.63;;;1.63;;
45366;SDS011;31100;55.848;37.636;2022-12-29T02:15:56;5.28;;;1.60;;
45366;SDS011;31100;55.848;37.636;2022-12-29T02:18:50;5.25;;;1.27;;
45366;SDS011;31100;55.848;37.636;2022-12-29T02:35:05;8.57;;;2.38;;
45366;SDS011;31100;55.848;37.636;2022-12-29T02:42:58;7.15;;;1.90;;
45366;SDS011;31100;55.848;37.636;2022-12-29T02:45:36;6.30;;;2.17;;
45366;SDS011;31100;55.848;37.636;2022-12-29T02:51:03;6.47;;;2.00;;
45366;SDS011;31100;55.848;37.636;2022-12-29T02:53:32;8.02;;;1.92;;
45366;SDS011;31100;55.848;37.636;2022-12-29T02:56:17;5.70;;;1.92;;
45366;SDS011;31100;55.848;37.636;2022-12-29T02:58:43;11.93;;;1.50;;
45366;SDS011;31100;55.848;37.636;2022-12-29T03:12:01;4.75;;;1.88;;
45366;SDS011;31100;55.848;37.636;2022-12-29T03:20:01;6.20;;;1.80;;
45366;SDS011;31100;55.848;37.636;2022-12-29T03:22:31;6.07;;;1.98;;
45366;SDS011;31100;55.848;37.636;2022-12-29T03:24:59;5.60;;;2.00;;
45366;SDS011;31100;55.848;37.636;2022-12-29T03:27:30;7.30;;;1.73;;
45366;SDS011;31100;55.848;37.636;2022-12-29T03:29:59;6.50;;;2.10;;
45366;SDS011;31100;55.848;37.636;2022-12-29T03:32:50;6.82;;;1.92;;
45366;SDS011;31100;55.848;37.636;2022-12-29T03:35:16;4.93;;;1.80;;
45366;SDS011;31100;55.848;37.636;2022-12-29T03:37:52;6.47;;;2.10;;
45366;SDS011;31100;55.848;37.636;2022-12-29T03:40:24;5.57;;;2.00;;
45366;SDS011;31100;55.848;37.636;2022-12-29T03:42:51;7.70;;;3.00;;
45366;SDS011;31100;55.848;37.636;2022-12-29T03:45:18;9.52;;;2.85;;
45366;SDS011;31100;55.848;37.636;2022-12-29T03:47:43;7.55;;;2.85;;
45366;SDS011;31100;55.848;37.636;2022-12-29T03:50:11;7.90;;;2.92;;
45366;SDS011;31100;55.848;37.636;2022-12-29T03:52:37;5.43;;;1.95;;
45366;SDS011;31100;55.848;37.636;2022-12-29T03:55:02;6.80;;;2.03;;
45366;SDS011;31100;55.848;37.636;2022-12-29T03:57:28;6.22;;;1.90;;
45366;SDS011;31100;55.848;37.636;2022-12-29T03:59:54;6.88;;;1.58;;
45366;SDS011;31100;55.848;37.636;2022-12-29T04:02:19;6.40;;;2.25;;
45366;SDS011;31100;55.848;37.636;2022-12-29T04:04:45;9.65;;;2.47;;
45366;SDS011;31100;55.848;37.636;2022-12-29T04:07:10;12.27;;;2.88;;
45366;SDS011;31100;55.848;37.636;2022-12-29T04:09:36;8.88;;;3.58;;
45366;SDS011;31100;55.848;37.636;2022-12-29T04:12:01;5.32;;;1.60;;
45366;SDS011;31100;55.848;37.636;2022-12-29T04:14:27;8.52;;;2.63;;
45366;SDS011;31100;55.848;37.636;2022-12-29T04:16:52;9.43;;;2.10;;
45366;SDS011;31100;55.848;37.636;2022-12-29T04:19:18;7.00;;;1.92;;
45366;SDS011;31100;55.848;37.636;2022-12-29T04:21:43;5.13;;;1.70;;
45366;SDS011;31100;55.848;37.636;2022-12-29T04:24:09;4.93;;;2.47;;
45366;SDS011;31100;55.848;37.636;2022-12-29T04:26:34;10.88;;;2.80;;
45366;SDS011;31100;55.848;37.636;2022-12-29T04:29:00;8.13;;;2.70;;
45366;SDS011;31100;55.848;37.636;2022-12-29T04:31:26;6.57;;;2.65;;
45366;SDS011;31100;55.848;37.636;2022-12-29T04:33:51;6.85;;;3.08;;
45366;SDS011;31100;55.848;37.636;2022-12-29T04:36:17;8.02;;;2.58;;
45366;SDS011;31100;55.848;37.636;2022-12-29T04:38:42;4.75;;;2.47;;
45366;SDS011;31100;55.848;37.636;2022-12-29T04:41:08;3.83;;;1.92;;
45366;SDS011;31100;55.848;37.636;2022-12-29T04:43:33;9.00;;;2.95;;
45366;SDS011;31100;55.848;37.636;2022-12-29T04:45:59;8.27;;;2.22;;
45366;SDS011;31100;55.848;37.636;2022-12-29T04:48:24;9.15;;;2.55;;
45366;SDS011;31100;55.848;37.636;2022-12-29T04:50:50;10.50;;;4.00;;
45366;SDS011;31100;55.848;37.636;2022-12-29T04:53:16;6.47;;;2.60;;
45366;SDS011;31100;55.848;37.636;2022-12-29T04:55:42;7.40;;;2.72;;
45366;SDS011;31100;55.848;37.636;2022-12-29T04:58:08;7.47;;;2.42;;
45366;SDS011;31100;55.848;37.636;2022-12-29T05:00:33;5.63;;;2.65;;
45366;SDS011;31100;55.848;37.636;2022-12-29T05:02:59;6.25;;;2.70;;
45366;SDS011;31100;55.848;37.636;2022-12-29T05:05:25;8.18;;;2.55;;
45366;SDS011;31100;55.848;37.636;2022-12-29T05:07:50;10.02;;;3.42;;
45366;SDS011;31100;55.848;37.636;2022-12-29T05:10:16;9.30;;;2.90;;
45366;SDS011;31100;55.848;37.636;2022-12-29T05:12:42;10.20;;;2.67;;
45366;SDS011;31100;55.848;37.636;2022-12-29T05:15:08;6.68;;;2.50;;
45366;SDS011;31100;55.848;37.636;2022-12-29T05:17:35;6.57;;;2.70;;
45366;SDS011;31100;55.848;37.636;2022-12-29T05:20:00;9.70;;;3.20;;
45366;SDS011;31100;55.848;37.636;2022-12-29T05:22:27;13.63;;;3.85;;
45366;SDS011;31100;55.848;37.636;2022-12-29T05:24:52;7.03;;;2.40;;
45366;SDS011;31100;55.848;37.636;2022-12-29T05:27:18;9.00;;;2.40;;
45366;SDS011;31100;55.848;37.636;2022-12-29T05:29:43;13.07;;;3.88;;
45366;SDS011;31100;55.848;37.636;2022-12-29T05:32:09;8.93;;;3.03;;
45366;SDS011;31100;55.848;37.636;2022-12-29T05:34:34;7.88;;;2.45;;
45366;SDS011;31100;55.848;37.636;2022-12-29T05:37:00;5.40;;;2.13;;
45366;SDS011;31100;55.848;37.636;2022-12-29T05:39:27;8.35;;;3.08;;
45366;SDS011;31100;55.848;37.636;2022-12-29T05:41:53;10.77;;;3.80;;
45366;SDS011;31100;55.848;37.636;2022-12-29T05:44:18;8.57;;;3.13;;
45366;SDS011;31100;55.848;37.636;2022-12-29T05:46:44;11.52;;;3.72;;
45366;SDS011;31100;55.848;37.636;2022-12-29T05:49:09;10.18;;;4.13;;
45366;SDS011;31100;55.848;37.636;2022-12-29T05:51:35;7.85;;;3.67;;
45366;SDS011;31100;55.848;37.636;2022-12-29T05:54:00;6.15;;;3.53;;
45366;SDS011;31100;55.848;37.636;2022-12-29T05:56:26;16.85;;;4.30;;
45366;SDS011;31100;55.848;37.636;2022-12-29T05:58:51;10.23;;;4.18;;
45366;SDS011;31100;55.848;37.636;2022-12-29T06:01:17;8.25;;;3.72;;
45366;SDS011;31100;55.848;37.636;2022-12-29T06:03:43;12.32;;;4.88;;
45366;SDS011;31100;55.848;37.636;2022-12-29T06:06:08;10.40;;;4.55;;
45366;SDS011;31100;55.848;37.636;2022-12-29T06:08:34;9.43;;;4.60;;
45366;SDS011;31100;55.848;37.636;2022-12-29T06:10:59;10.02;;;4.80;;
45366;SDS011;31100;55.848;37.636;2022-12-29T06:13:25;12.30;;;5.13;;
45366;SDS011;31100;55.848;37.636;2022-12-29T06:15:51;9.73;;;4.40;;
45366;SDS011;31100;55.848;37.636;2022-12-29T06:18:16;9.77;;;4.72;;
45366;SDS011;31100;55.848;37.636;2022-12-29T06:20:42;14.65;;;5.57;;
45366;SDS011;31100;55.848;37.636;2022-12-29T06:23:08;7.75;;;4.18;;
45366;SDS011;31100;55.848;37.636;2022-12-29T06:25:33;8.52;;;4.38;;
45366;SDS011;31100;55.848;37.636;2022-12-29T06:28:01;15.73;;;6.68;;
45366;SDS011;31100;55.848;37.636;2022-12-29T06:30:27;12.20;;;6.32;;
45366;SDS011;31100;55.848;37.636;2022-12-29T06:32:53;13.27;;;5.30;;
45366;SDS011;31100;55.848;37.636;2022-12-29T06:35:19;8.63;;;4.85;;
45366;SDS011;31100;55.848;37.636;2022-12-29T06:37:47;10.65;;;4.82;;
45366;SDS011;31100;55.848;37.636;2022-12-29T06:40:13;9.68;;;4.93;;
45366;SDS011;31100;55.848;37.636;2022-12-29T06:42:39;12.20;;;5.43;;
45366;SDS011;31100;55.848;37.636;2022-12-29T06:45:04;11.05;;;4.97;;
45366;SDS011;31100;55.848;37.636;2022-12-29T06:47:30;13.63;;;5.25;;
45366;SDS011;31100;55.848;37.636;2022-12-29T06:49:56;13.52;;;5.53;;
45366;SDS011;31100;55.848;37.636;2022-12-29T06:52:21;12.57;;;5.68;;
45366;SDS011;31100;55.848;37.636;2022-12-29T06:54:49;11.90;;;4.75;;
45366;SDS011;31100;55.848;37.636;2022-12-29T06:57:14;9.60;;;4.88;;
45366;SDS011;31100;55.848;37.636;2022-12-29T06:59:40;11.25;;;4.68;;
45366;SDS011;31100;55.848;37.636;2022-12-29T07:02:05;12.52;;;5.75;;
45366;SDS011;31100;55.848;37.636;2022-12-29T07:04:32;12.15;;;5.30;;
45366;SDS011;31100;55.848;37.636;2022-12-29T07:06:58;8.55;;;5.03;;
45366;SDS011;31100;55.848;37.636;2022-12-29T07:09:23;15.43;;;4.90;;
45366;SDS011;31100;55.848;37.636;2022-12-29T07:11:49;10.15;;;4.65;;
45366;SDS011;31100;55.848;37.636;2022-12-29T07:14:15;9.45;;;4.30;;
45366;SDS011;31100;55.848;37.636;2022-12-29T07:16:40;11.90;;;5.75;;
45366;SDS011;31100;55.848;37.636;2022-12-29T07:19:06;9.20;;;5.00;;
45366;SDS011;31100;55.848;37.636;2022-12-29T07:21:32;10.88;;;4.80;;
45366;SDS011;31100;55.848;37.636;2022-12-29T07:23:57;10.10;;;5.00;;
45366;SDS011;31100;55.848;37.636;2022-12-29T07:26:23;13.27;;;7.25;;
45366;SDS011;31100;55.848;37.636;2022-12-29T07:28:49;9.20;;;5.13;;
45366;SDS011;31100;55.848;37.636;2022-12-29T07:31:19;9.68;;;4.07;;
45366;SDS011;31100;55.848;37.636;2022-12-29T07:33:46;8.63;;;4.57;;
45366;SDS011;31100;55.848;37.636;2022-12-29T07:36:12;11.10;;;5.15;;
45366;SDS011;31100;55.848;37.636;2022-12-29T07:38:39;9.32;;;4.93;;
45366;SDS011;31100;55.848;37.636;2022-12-29T07:41:05;12.05;;;5.60;;
45366;SDS011;31100;55.848;37.636;2022-12-29T07:43:30;12.00;;;5.05;;
45366;SDS011;31100;55.848;37.636;2022-12-29T07:45:56;9.63;;;4.60;;
45366;SDS011;31100;55.848;37.636;2022-12-29T07:48:21;10.52;;;4.78;;
45366;SDS011;31100;55.848;37.636;2022-12-29T07:50:47;13.82;;;5.53;;
45366;SDS011;31100;55.848;37.636;2022-12-29T07:53:13;12.48;;;4.95;;
45366;SDS011;31100;55.848;37.636;2022-12-29T07:55:38;12.07;;;5.65;;
45366;SDS011;31100;55.848;37.636;2022-12-29T07:58:04;11.63;;;6.75;;
45366;SDS011;31100;55.848;37.636;2022-12-29T08:00:30;13.00;;;5.93;;
45366;SDS011;31100;55.848;37.636;2022-12-29T08:02:55;14.75;;;5.88;;
45366;SDS011;31100;55.848;37.636;2022-12-29T08:05:21;16.10;;;6.93;;
45366;SDS011;31100;55.848;37.636;2022-12-29T08:07:46;12.48;;;5.60;;
45366;SDS011;31100;55.848;37.636;2022-12-29T08:10:13;14.13;;;6.68;;
45366;SDS011;31100;55.848;37.636;2022-12-29T08:12:39;12.93;;;5.55;;
45366;SDS011;31100;55.848;37.636;2022-12-29T08:15:05;12.18;;;5.35;;
45366;SDS011;31100;55.848;37.636;2022-12-29T08:17:32;11.88;;;5.43;;
45366;SDS011;31100;55.848;37.636;2022-12-29T08:19:57;12.07;;;4.88;;
45366;SDS011;31100;55.848;37.636;2022-12-29T08:22:23;14.38;;;5.10;;
45366;SDS011;31100;55.848;37.636;2022-12-29T08:24:49;12.30;;;5.88;;
45366;SDS011;31100;55.848;37.636;2022-12-29T08:27:15;10.52;;;5.43;;
45366;SDS011;31100;55.848;37.636;2022-12-29T08:29:41;12.25;;;4.35;;
45366;SDS011;31100;55.848;37.636;2022-12-29T08:32:07;9.88;;;5.10;;
45366;SDS011;31100;55.848;37.636;2022-12-29T08:34:32;10.10;;;5.13;;
45366;SDS011;31100;55.848;37.636;2022-12-29T08:36:58;10.35;;;5.18;;
45366;SDS011;31100;55.848;37.636;2022-12-29T08:39:24;9.23;;;4.82;;
45366;SDS011;31100;55.848;37.636;2022-12-29T08:41:49;11.30;;;4.75;;
45366;SDS011;31100;55.848;37.636;2022-12-29T08:44:15;11.65;;;4.50;;
45366;SDS011;31100;55.848;37.636;2022-12-29T08:46:40;10.27;;;4.85;;
45366;SDS011;31100;55.848;37.636;2022-12-29T08:49:06;11.73;;;5.70;;
45366;SDS011;31100;55.848;37.636;2022-12-29T08:51:31;12.63;;;5.90;;
45366;SDS011;31100;55.848;37.636;2022-12-29T08:53:57;11.85;;;5.95;;
45366;SDS011;31100;55.848;37.636;2022-12-29T08:56:23;15.75;;;6.05;;
45366;SDS011;31100;55.848;37.636;2022-12-29T08:58:50;7.45;;;4.63;;
45366;SDS011;31100;55.848;37.636;2022-12-29T09:01:16;14.18;;;5.45;;
45366;SDS011;31100;55.848;37.636;2022-12-29T09:03:41;11.07;;;5.05;;
45366;SDS011;31100;55.848;37.636;2022-12-29T09:06:07;11.13;;;5.97;;
45366;SDS011;31100;55.848;37.636;2022-12-29T09:08:32;9.35;;;5.43;;
45366;SDS011;31100;55.848;37.636;2022-12-29T09:13:33;8.85;;;5.40;;
45366;SDS011;31100;55.848;37.636;2022-12-29T09:15:59;10.35;;;5.28;;
45366;SDS011;31100;55.848;37.636;2022-12-29T09:18:25;9.10;;;4.93;;
45366;SDS011;31100;55.848;37.636;2022-12-29T09:20:55;9.52;;;5.22;;
45366;SDS011;31100;55.848;37.636;2022-12-29T09:23:22;10.93;;;5.95;;
45366;SDS011;31100;55.848;37.636;2022-12-29T09:25:47;16.02;;;9.60;;
45366;SDS011;31100;55.848;37.636;2022-12-29T09:28:13;12.68;;;6.07;;
45366;SDS011;31100;55.848;37.636;2022-12-29T09:30:38;9.38;;;5.28;;
45366;SDS011;31100;55.848;37.636;2022-12-29T09:33:04;7.40;;;4.35;;
45366;SDS011;31100;55.848;37.636;2022-12-29T09:35:30;9.75;;;5.55;;
45366;SDS011;31100;55.848;37.636;2022-12-29T09:37:55;10.35;;;5.32;;
45366;SDS011;31100;55.848;37.636;2022-12-29T09:40:28;11.65;;;5.60;;
45366;SDS011;31100;55.848;37.636;2022-12-29T09:43:42;8.73;;;5.28;;
45366;SDS011;31100;55.848;37.636;2022-12-29T09:48:40;9.07;;;5.45;;
45366;SDS011;31100;55.848;37.636;2022-12-29T09:51:10;10.77;;;5.80;;
45366;SDS011;31100;55.848;37.636;2022-12-29T09:53:39;10.90;;;6.95;;
45366;SDS011;31100;55.848;37.636;2022-12-29T09:56:17;11.00;;;6.05;;
45366;SDS011;31100;55.848;37.636;2022-12-29T09:58:47;10.60;;;5.68;;
45366;SDS011;31100;55.848;37.636;2022-12-29T10:04:15;10.63;;;5.55;;
45366;SDS011;31100;55.848;37.636;2022-12-29T10:06:48;11.20;;;5.55;;
45366;SDS011;31100;55.848;37.636;2022-12-29T10:15:08;9.40;;;5.60;;
45366;SDS011;31100;55.848;37.636;2022-12-29T10:20:23;11.85;;;6.35;;
45366;SDS011;31100;55.848;37.636;2022-12-29T10:23:04;15.02;;;6.75;;
45366;SDS011;31100;55.848;37.636;2022-12-29T10:25:38;10.70;;;6.03;;
45366;SDS011;31100;55.848;37.636;2022-12-29T10:28:06;12.82;;;5.97;;
45366;SDS011;31100;55.848;37.636;2022-12-29T10:30:41;12.70;;;7.40;;
45366;SDS011;31100;55.848;37.636;2022-12-29T10:33:08;10.85;;;7.07;;
45366;SDS011;31100;55.848;37.636;2022-12-29T10:35:37;14.25;;;6.95;;
45366;SDS011;31100;55.848;37.636;2022-12-29T10:41:02;13.00;;;7.68;;
45366;SDS011;31100;55.848;37.636;2022-12-29T10:43:35;14.63;;;9.00;;
45366;SDS011;31100;55.848;37.636;2022-12-29T10:46:14;13.35;;;7.28;;
45366;SDS011;31100;55.848;37.636;2022-12-29T10:48:43;16.65;;;8.27;;
45366;SDS011;31100;55.848;37.636;2022-12-29T10:51:13;18.60;;;10.45;;
45366;SDS011;31100;55.848;37.636;2022-12-29T10:56:32;17.48;;;9.10;;
45366;SDS011;31100;55.848;37.636;2022-12-29T10:59:01;13.25;;;7.95;;
45366;SDS011;31100;55.848;37.636;2022-12-29T11:07:18;17.25;;;8.32;;
45366;SDS011;31100;55.848;37.636;2022-12-29T11:09:44;15.88;;;9.10;;
45366;SDS011;31100;55.848;37.636;2022-12-29T11:12:21;15.57;;;9.52;;
45366;SDS011;31100;55.848;37.636;2022-12-29T11:14:59;15.45;;;9.00;;
45366;SDS011;31100;55.848;37.636;2022-12-29T11:17:28;17.55;;;8.90;;
45366;SDS011;31100;55.848;37.636;2022-12-29T11:19:56;16.25;;;8.77;;
45366;SDS011;31100;55.848;37.636;2022-12-29T11:24:50;21.60;;;12.02;;
45366;SDS011;31100;55.848;37.636;2022-12-29T11:27:25;21.02;;;11.23;;
45366;SDS011;31100;55.848;37.636;2022-12-29T11:29:52;18.65;;;10.00;;
45366;SDS011;31100;55.848;37.636;2022-12-29T11:34:44;25.58;;;14.25;;
45366;SDS011;31100;55.848;37.636;2022-12-29T11:37:11;14.77;;;9.15;;
45366;SDS011;31100;55.848;37.636;2022-12-29T11:42:11;15.25;;;9.43;;
45366;SDS011;31100;55.848;37.636;2022-12-29T11:44:42;19.95;;;10.73;;
45366;SDS011;31100;55.848;37.636;2022-12-29T11:47:09;16.63;;;9.40;;
45366;SDS011;31100;55.848;37.636;2022-12-29T11:49:48;21.58;;;10.90;;
45366;SDS011;31100;55.848;37.636;2022-12-29T11:52:15;21.08;;;11.13;;
45366;SDS011;31100;55.848;37.636;2022-12-29T11:54:40;18.88;;;10.27;;
45366;SDS011;31100;55.848;37.636;2022-12-29T11:57:14;14.98;;;9.45;;
45366;SDS011;31100;55.848;37.636;2022-12-29T11:59:54;18.95;;;9.27;;
45366;SDS011;31100;55.848;37.636;2022-12-29T12:02:38;16.83;;;9.70;;
45366;SDS011;31100;55.848;37.636;2022-12-29T12:05:13;17.95;;;9.57;;
45366;SDS011;31100;55.848;37.636;2022-12-29T12:07:43;19.08;;;11.05;;
45366;SDS011;31100;55.848;37.636;2022-12-29T12:10:15;18.25;;;9.57;;
45366;SDS011;31100;55.848;37.636;2022-12-29T12:12:55;17.67;;;9.93;;
45366;SDS011;31100;55.848;37.636;2022-12-29T12:15:33;20.02;;;9.98;;
45366;SDS011;31100;55.848;37.636;2022-12-29T12:18:27;22.65;;;10.18;;
45366;SDS011;31100;55.848;37.636;2022-12-29T12:21:18;23.73;;;11.57;;
45366;SDS011;31100;55.848;37.636;2022-12-29T12:29:43;25.25;;;14.30;;
45366;SDS011;31100;55.848;37.636;2022-12-29T12:40:52;20.38;;;10.20;;
45366;SDS011;31100;55.848;37.636;2022-12-29T12:54:23;19.65;;;9.82;;
45366;SDS011;31100;55.848;37.636;2022-12-29T12:57:05;22.45;;;11.68;;
45366;SDS011;31100;55.848;37.636;2022-12-29T13:00:08;19.40;;;11.30;;
45366;SDS011;31100;55.848;37.636;2022-12-29T13:02:39;19.20;;;10.52;;
45366;SDS011;31100;55.848;37.636;2022-12-29T13:19:06;22.30;;;11.60;;
45366;SDS011;31100;55.848;37.636;2022-12-29T13:22:04;22.30;;;11.98;;
45366;SDS011;31100;55.848;37.636;2022-12-29T13:24:40;22.85;;;12.63;;
45366;SDS011;31100;55.848;37.636;2022-12-29T13:27:17;27.33;;;12.82;;
45366;SDS011;31100;55.848;37.636;2022-12-29T13:38:09;25.52;;;13.40;;
45366;SDS011;31100;55.848;37.636;2022-12-29T13:40:43;23.05;;;12.88;;
45366;SDS011;31100;55.848;37.636;2022-12-29T13:43:10;25.30;;;14.13;;
45366;SDS011;31100;55.848;37.636;2022-12-29T13:45:37;23.33;;;12.40;;
45366;SDS011;31100;55.848;37.636;2022-12-29T13:48:09;23.63;;;13.13;;
45366;SDS011;31100;55.848;37.636;2022-12-29T13:50:40;22.85;;;13.35;;
45366;SDS011;31100;55.848;37.636;2022-12-29T13:56:24;26.95;;;14.18;;
45366;SDS011;31100;55.848;37.636;2022-12-29T14:01:40;30.88;;;15.68;;
45366;SDS011;31100;55.848;37.636;2022-12-29T14:04:27;29.83;;;15.25;;
45366;SDS011;31100;55.848;37.636;2022-12-29T14:06:58;28.73;;;15.10;;
45366;SDS011;31100;55.848;37.636;2022-12-29T14:15:19;25.00;;;15.07;;
45366;SDS011;31100;55.848;37.636;2022-12-29T14:18:51;26.38;;;13.52;;
45366;SDS011;31100;55.848;37.636;2022-12-29T14:28:49;27.58;;;14.85;;
45366;SDS011;31100;55.848;37.636;2022-12-29T14:33:40;27.75;;;14.75;;
45366;SDS011;31100;55.848;37.636;2022-12-29T14:36:20;25.63;;;14.05;;
45366;SDS011;31100;55.848;37.636;2022-12-29T14:38:46;31.35;;;15.63;;
45366;SDS011;31100;55.848;37.636;2022-12-29T14:41:16;31.60;;;16.17;;
45366;SDS011;31100;55.848;37.636;2022-12-29T14:43:52;28.27;;;13.80;;
45366;SDS011;31100;55.848;37.636;2022-12-29T14:46:20;26.23;;;14.98;;
45366;SDS011;31100;55.848;37.636;2022-12-29T14:48:45;26.52;;;13.82;;
45366;SDS011;31100;55.848;37.636;2022-12-29T14:51:17;21.88;;;12.68;;
45366;SDS011;31100;55.848;37.636;2022-12-29T14:56:12;23.05;;;13.25;;
45366;SDS011;31100;55.848;37.636;2022-12-29T15:01:42;21.38;;;12.68;;
45366;SDS011;31100;55.848;37.636;2022-12-29T15:04:30;23.23;;;12.73;;
45366;SDS011;31100;55.848;37.636;2022-12-29T15:06:56;30.50;;;13.90;;
45366;SDS011;31100;55.848;37.636;2022-12-29T15:09:33;24.25;;;12.63;;
45366;SDS011;31100;55.848;37.636;2022-12-29T15:12:06;25.60;;;13.90;;
45366;SDS011;31100;55.848;37.636;2022-12-29T15:14:58;22.85;;;13.13;;
45366;SDS011;31100;55.848;37.636;2022-12-29T15:17:26;24.85;;;13.23;;
45366;SDS011;31100;55.848;37.636;2022-12-29T15:20:00;24.15;;;13.60;;
45366;SDS011;31100;55.848;37.636;2022-12-29T15:22:47;23.75;;;13.93;;
45366;SDS011;31100;55.848;37.636;2022-12-29T15:25:16;21.45;;;14.05;;
45366;SDS011;31100;55.848;37.636;2022-12-29T15:27:42;32.28;;;17.48;;
45366;SDS011;31100;55.848;37.636;2022-12-29T15:30:12;25.42;;;15.32;;
45366;SDS011;31100;55.848;37.636;2022-12-29T15:32:45;27.05;;;13.65;;
45366;SDS011;31100;55.848;37.636;2022-12-29T15:35:25;27.38;;;14.73;;
45366;SDS011;31100;55.848;37.636;2022-12-29T15:37:54;23.38;;;14.43;;
45366;SDS011;31100;55.848;37.636;2022-12-29T15:40:32;28.27;;;14.45;;
45366;SDS011;31100;55.848;37.636;2022-12-29T15:46:00;25.38;;;14.35;;
45366;SDS011;31100;55.848;37.636;2022-12-29T15:48:26;28.10;;;15.57;;
45366;SDS011;31100;55.848;37.636;2022-12-29T15:50:51;23.08;;;13.00;;
45366;SDS011;31100;55.848;37.636;2022-12-29T15:53:30;23.25;;;14.23;;
45366;SDS011;31100;55.848;37.636;2022-12-29T15:55:59;24.45;;;14.65;;
45366;SDS011;31100;55.848;37.636;2022-12-29T15:58:28;27.35;;;16.00;;
45366;SDS011;31100;55.848;37.636;2022-12-29T16:00:58;26.38;;;14.57;;
45366;SDS011;31100;55.848;37.636;2022-12-29T16:03:26;22.17;;;13.20;;
45366;SDS011;31100;55.848;37.636;2022-12-29T16:05:54;25.73;;;13.77;;
45366;SDS011;31100;55.848;37.636;2022-12-29T16:08:28;26.83;;;15.13;;
45366;SDS011;31100;55.848;37.636;2022-12-29T16:11:02;28.17;;;15.65;;
45366;SDS011;31100;55.848;37.636;2022-12-29T16:13:55;27.73;;;14.43;;
45366;SDS011;31100;55.848;37.636;2022-12-29T16:16:31;26.58;;;14.63;;
45366;SDS011;31100;55.848;37.636;2022-12-29T16:19:02;21.88;;;14.43;;
45366;SDS011;31100;55.848;37.636;2022-12-29T16:24:02;27.08;;;15.50;;
45366;SDS011;31100;55.848;37.636;2022-12-29T16:26:45;25.02;;;14.07;;
45366;SDS011;31100;55.848;37.636;2022-12-29T16:29:12;30.80;;;15.73;;
45366;SDS011;31100;55.848;37.636;2022-12-29T16:31:49;31.13;;;14.77;;
45366;SDS011;31100;55.848;37.636;2022-12-29T16:34:30;24.60;;;13.98;;
45366;SDS011;31100;55.848;37.636;2022-12-29T16:37:03;27.33;;;16.15;;
45366;SDS011;31100;55.848;37.636;2022-12-29T16:39:48;24.23;;;13.70;;
45366;SDS011;31100;55.848;37.636;2022-12-29T16:42:33;27.45;;;15.35;;
45366;SDS011;31100;55.848;37.636;2022-12-29T16:48:11;33.80;;;16.75;;
45366;SDS011;31100;55.848;37.636;2022-12-29T16:53:50;30.33;;;16.02;;
45366;SDS011;31100;55.848;37.636;2022-12-29T16:56:19;33.25;;;16.92;;
45366;SDS011;31100;55.848;37.636;2022-12-29T16:58:52;36.15;;;16.95;;
45366;SDS011;31100;55.848;37.636;2022-12-29T17:01:28;32.80;;;17.55;;
45366;SDS011;31100;55.848;37.636;2022-12-29T17:03:57;34.70;;;17.25;;
45366;SDS011;31100;55.848;37.636;2022-12-29T17:06:24;37.45;;;17.63;;
45366;SDS011;31100;55.848;37.636;2022-12-29T17:08:50;36.67;;;17.85;;
45366;SDS011;31100;55.848;37.636;2022-12-29T17:11:24;34.80;;;18.33;;
45366;SDS011;31100;55.848;37.636;2022-12-29T17:14:23;39.33;;;17.85;;
45366;SDS011;31100;55.848;37.636;2022-12-29T17:17:02;36.83;;;17.23;;
45366;SDS011;31100;55.848;37.636;2022-12-29T17:19:29;35.33;;;17.08;;
45366;SDS011;31100;55.848;37.636;2022-12-29T17:21:56;36.78;;;18.33;;
45366;SDS011;31100;55.848;37.636;2022-12-29T17:24:22;37.40;;;17.90;;